Time;durP1;ratioP1;P1;durP2;ratioP2;P2;SDS_P1;SDS_P2;PMS_P1;PMS_P2;Temp;Humidity;BMP_temperature;BMP_pressure;BME280_temperature;BME280_humidity;BME280_pressure;Samples;Min_cycle;Max_cycle;Signal;HPM_P1;HPM_P2
2021/09/19 00:07:42;;;;;;;12.38;6.13;;;;;;;13.88;81.44;100218.00;20736571;28;20038;-74
2021/09/19 00:17:46;;;;;;;10.57;7.18;;;;;;;13.55;83.54;100210.25;20741909;28;20475;-73
2021/09/19 00:27:48;;;;;;;11.50;7.83;;;;;;;13.34;84.24;100205.66;20753639;28;20100;-73
2021/09/19 00:37:50;;;;;;;13.25;7.50;;;;;;;13.16;85.05;100201.75;20750760;28;20141;-73
2021/09/19 00:47:52;;;;;;;12.55;7.68;;;;;;;13.06;85.73;100198.56;20752101;28;20050;-74
2021/09/19 00:57:55;;;;;;;11.27;7.82;;;;;;;12.96;85.81;100189.22;20751076;28;20511;-74
2021/09/19 01:07:58;;;;;;;13.15;8.57;;;;;;;12.78;86.35;100184.47;20749089;28;20050;-74
2021/09/19 01:18:00;;;;;;;9.88;6.90;;;;;;;12.76;86.21;100191.56;20749843;28;20050;-73
2021/09/19 01:28:04;;;;;;;10.70;6.47;;;;;;;12.66;86.26;100174.31;20747379;28;20049;-73
2021/09/19 01:38:06;;;;;;;11.90;6.80;;;;;;;12.54;86.77;100167.63;20747892;28;20552;-73
2021/09/19 01:48:09;;;;;;;11.60;6.35;;;;;;;12.49;86.50;100159.88;20747362;28;20100;-73
2021/09/19 01:58:10;;;;;;;9.55;6.13;;;;;;;12.47;86.12;100160.84;20746591;28;20385;-74
2021/09/19 02:08:12;;;;;;;10.52;6.45;;;;;;;12.27;86.97;100151.75;20745392;28;20392;-73
2021/09/19 02:18:14;;;;;;;9.70;7.00;;;;;;;12.15;87.55;100148.56;20745118;28;20050;-73
2021/09/19 02:28:17;;;;;;;9.55;6.40;;;;;;;12.10;87.33;100153.06;20744375;28;20049;-74
2021/09/19 02:38:19;;;;;;;10.77;7.20;;;;;;;11.99;87.28;100143.72;20741929;28;20068;-73
2021/09/19 02:48:21;;;;;;;11.35;7.13;;;;;;;11.92;87.76;100130.78;20742832;28;20711;-74
2021/09/19 02:58:22;;;;;;;10.75;7.45;;;;;;;11.78;88.58;100117.97;20742670;28;20060;-73
2021/09/19 03:08:24;;;;;;;11.77;7.47;;;;;;;11.82;88.34;100119.66;20748347;28;20050;-74
2021/09/19 03:18:26;;;;;;;16.65;8.68;;;;;;;11.73;88.02;100106.75;20757908;28;20049;-74
2021/09/19 03:28:28;;;;;;;12.65;8.50;;;;;;;11.65;88.78;100113.97;20739657;28;20054;-74
2021/09/19 03:38:30;;;;;;;12.35;8.98;;;;;;;11.51;89.17;100119.53;20738702;28;20050;-74
2021/09/19 03:48:32;;;;;;;14.90;8.82;;;;;;;11.51;89.20;100123.03;20738809;28;20058;-74
2021/09/19 03:58:33;;;;;;;14.15;8.90;;;;;;;11.36;90.02;100127.78;20737179;28;20554;-74
2021/09/19 04:08:35;;;;;;;14.07;9.55;;;;;;;11.26;90.16;100124.50;20735536;28;20046;-74
2021/09/19 04:18:37;;;;;;;15.57;9.77;;;;;;;11.15;90.61;100124.72;20735325;28;20057;-74
2021/09/19 04:28:39;;;;;;;15.10;9.45;;;;;;;11.17;90.25;100122.09;20736839;28;20405;-74
2021/09/19 04:38:40;;;;;;;12.75;8.57;;;;;;;11.15;90.85;100127.34;20735379;28;20038;-73
2021/09/19 04:48:43;;;;;;;14.18;9.20;;;;;;;11.04;91.03;100143.31;20733111;28;20116;-74
2021/09/19 04:58:45;;;;;;;15.15;9.40;;;;;;;11.04;90.65;100145.94;20735337;28;20050;-74
2021/09/19 05:08:46;;;;;;;13.05;9.00;;;;;;;10.94;91.24;100157.50;20815979;28;20045;-73
2021/09/19 05:18:48;;;;;;;14.98;8.77;;;;;;;11.02;90.71;100166.06;20831508;28;20088;-74
2021/09/19 05:28:51;;;;;;;16.52;8.20;;;;;;;10.89;91.52;100174.22;20830787;28;20103;-73
2021/09/19 05:38:52;;;;;;;12.57;8.15;;;;;;;11.01;90.89;100174.81;20829568;28;20042;-74
2021/09/19 05:48:54;;;;;;;11.85;7.78;;;;;;;11.03;91.05;100182.66;20827323;28;20053;-73
2021/09/19 05:58:56;;;;;;;12.13;8.07;;;;;;;11.17;90.79;100177.13;20829675;28;20104;-74
2021/09/19 06:08:58;;;;;;;12.60;7.65;;;;;;;11.39;89.35;100190.59;20825754;28;20049;-74
2021/09/19 06:19:01;;;;;;;11.35;7.32;;;;;;;11.57;88.88;100184.94;20826537;28;20475;-73
2021/09/19 06:29:03;;;;;;;11.02;6.90;;;;;;;11.79;88.51;100172.19;20826071;28;20107;-73
2021/09/19 06:39:05;;;;;;;10.50;6.70;;;;;;;11.79;88.96;100159.06;20823955;28;20042;-73
2021/09/19 06:49:07;;;;;;;10.32;6.68;;;;;;;11.97;87.99;100157.75;20823395;28;20076;-73
2021/09/19 06:59:09;;;;;;;9.20;5.95;;;;;;;12.27;87.57;100177.13;20823602;28;20099;-74
2021/09/19 07:09:11;;;;;;;8.95;5.50;;;;;;;12.69;84.87;100180.34;20720678;28;20070;-74
2021/09/19 07:19:13;;;;;;;8.15;5.15;;;;;;;13.09;83.38;100176.59;20728673;28;20073;-74
2021/09/19 07:29:15;;;;;;;6.95;4.88;;;;;;;13.36;81.30;100188.06;20659696;28;20579;-74
2021/09/19 07:39:17;;;;;;;7.38;4.70;;;;;;;13.52;80.73;100189.31;20689715;28;20041;-74
2021/09/19 07:49:21;;;;;;;7.88;4.72;;;;;;;13.63;79.55;100196.88;20750072;28;20069;-73
2021/09/19 07:59:23;;;;;;;7.57;4.10;;;;;;;14.00;80.19;100200.97;20755575;28;20050;-73
2021/09/19 08:09:25;;;;;;;7.47;4.20;;;;;;;14.29;77.79;100215.78;20738033;28;20785;-74
2021/09/19 08:19:28;;;;;;;7.05;4.10;;;;;;;14.58;77.13;100210.41;20817502;28;20049;-74
2021/09/19 08:29:30;;;;;;;6.93;4.45;;;;;;;14.89;76.28;100207.50;20819703;28;20096;-74
2021/09/19 08:39:32;;;;;;;6.47;4.07;;;;;;;15.14;74.96;100189.03;20822786;28;20046;-74
2021/09/19 08:49:34;;;;;;;7.32;4.65;;;;;;;15.56;73.71;100192.69;20833566;28;20049;-74
2021/09/19 08:59:47;;;;;;;8.45;4.07;;;;;;;15.93;72.41;100200.00;20834201;28;20046;-74
2021/09/19 09:09:57;;;;;;;6.20;4.07;;;;;;;16.20;72.01;100191.88;20832450;28;20100;-74
2021/09/19 09:20:00;;;;;;;6.65;3.78;;;;;;;16.57;70.59;100186.69;20751201;28;20180;-74
2021/09/19 09:30:23;;;;;;;6.40;4.22;;;;;;;16.70;69.03;100179.09;20727168;28;20050;-74
2021/09/19 09:40:30;;;;;;;6.15;3.70;;;;;;;17.13;69.01;100180.69;20668794;28;20101;-74
2021/09/19 09:50:33;;;;;;;7.30;4.03;;;;;;;17.46;68.39;100195.94;20667359;28;20085;-74
2021/09/19 10:00:36;;;;;;;6.32;3.45;;;;;;;17.76;65.74;100203.34;20666190;28;20413;-74
2021/09/19 10:10:41;;;;;;;6.60;3.10;;;;;;;17.95;65.82;100198.88;20680608;28;20072;-74
2021/09/19 10:20:48;;;;;;;4.97;3.20;;;;;;;18.10;65.16;100190.16;20827093;28;20500;-74
2021/09/19 10:31:08;;;;;;;7.50;3.50;;;;;;;18.16;64.37;100189.88;20827034;28;20056;-74
2021/09/19 10:41:17;;;;;;;4.55;3.20;;;;;;;18.24;65.30;100181.50;20826304;28;20054;-74
2021/09/19 10:51:19;;;;;;;6.30;3.33;;;;;;;18.77;64.01;100169.09;20825714;28;20581;-74
2021/09/19 11:01:34;;;;;;;6.95;3.30;;;;;;;18.77;62.58;100155.81;20823326;28;20417;-73
2021/09/19 11:11:38;;;;;;;5.45;3.42;;;;;;;18.83;63.03;100153.72;20808420;28;20050;-73
2021/09/19 11:21:45;;;;;;;5.85;3.50;;;;;;;18.82;63.87;100156.44;20740336;28;20045;-74
2021/09/19 11:31:48;;;;;;;6.95;3.88;;;;;;;18.74;63.54;100142.75;20740551;28;20054;-73
2021/09/19 11:41:50;;;;;;;5.43;3.53;;;;;;;19.41;62.51;100133.72;20752561;23;20045;-72
2021/09/19 11:51:52;;;;;;;6.82;3.78;;;;;;;19.22;62.39;100134.75;20738244;28;20419;-73
2021/09/19 12:01:58;;;;;;;6.10;3.60;;;;;;;18.90;62.90;100133.00;20737604;28;20054;-72
2021/09/19 12:12:12;;;;;;;6.70;3.75;;;;;;;19.54;61.86;100145.34;20755004;28;20056;-72
2021/09/19 12:22:16;;;;;;;6.38;3.90;;;;;;;19.74;59.18;100130.97;20817771;28;20053;-73
2021/09/19 12:32:18;;;;;;;;;;;;;;;19.67;58.85;100124.28;20799834;28;20041;-73
2021/09/19 12:42:19;;;;;;;5.70;3.58;;;;;;;19.78;59.74;100124.53;20816989;28;19932;-72
2021/09/19 12:52:31;;;;;;;6.10;3.83;;;;;;;19.54;58.72;100112.63;20816907;28;20462;-72
2021/09/19 13:02:34;;;;;;;7.03;4.70;;;;;;;19.49;58.23;100116.41;20816995;28;20407;-72
2021/09/19 13:12:37;;;;;;;7.20;4.22;;;;;;;19.72;59.47;100107.13;20775465;28;20050;-72
2021/09/19 13:22:38;;;;;;;6.25;4.05;;;;;;;19.97;56.99;100105.69;20734231;28;20088;-72
2021/09/19 13:32:40;;;;;;;6.50;4.22;;;;;;;19.91;56.89;100111.38;20747505;28;20116;-72
2021/09/19 13:42:42;;;;;;;6.03;3.70;;;;;;;20.04;56.60;100100.91;20747723;28;20046;-72
2021/09/19 13:52:45;;;;;;;5.65;3.95;;;;;;;19.88;56.50;100106.22;20746749;28;20116;-73
2021/09/19 14:02:47;;;;;;;9.05;5.60;;;;;;;19.80;57.09;100103.19;20744954;28;20049;-72
2021/09/19 14:12:49;;;;;;;6.03;3.97;;;;;;;19.94;55.07;100100.59;20771888;28;20121;-73
2021/09/19 14:22:51;;;;;;;5.82;3.90;;;;;;;20.11;55.46;100103.06;20828890;28;20045;-72
2021/09/19 14:32:53;;;;;;;11.88;6.97;;;;;;;20.15;55.86;100103.75;20825759;28;20049;-74
2021/09/19 14:42:55;;;;;;;5.35;3.60;;;;;;;20.17;56.18;100108.03;20828542;28;20104;-73
2021/09/19 14:52:59;;;;;;;7.07;3.28;;;;;;;19.75;58.16;100102.63;20826675;28;20079;-73
2021/09/19 15:03:02;;;;;;;5.53;3.40;;;;;;;19.61;58.12;100112.22;20824216;28;20107;-73
2021/09/19 15:13:04;;;;;;;6.13;3.88;;;;;;;19.39;59.08;100109.06;20807276;28;20049;-72
2021/09/19 15:23:06;;;;;;;6.80;3.80;;;;;;;19.37;60.93;100106.50;20822798;28;20068;-72
2021/09/19 15:33:08;;;;;;;6.07;3.90;;;;;;;19.40;58.48;100105.44;20716178;28;20077;-72
2021/09/19 15:43:10;;;;;;;5.60;3.60;;;;;;;19.47;59.14;100112.13;20659295;28;20053;-73
2021/09/19 15:53:12;;;;;;;6.38;4.18;;;;;;;19.33;62.93;100123.53;20654644;28;20073;-72
2021/09/19 16:03:13;;;;;;;5.30;3.67;;;;;;;19.15;65.58;100127.22;20656680;28;20050;-72
2021/09/19 16:13:16;;;;;;;5.25;3.30;;;;;;;19.03;63.22;100138.53;20713993;28;20045;-74
2021/09/19 16:23:18;;;;;;;5.95;3.60;;;;;;;18.98;64.92;100138.78;20814591;28;20041;-72
2021/09/19 16:33:20;;;;;;;9.13;5.15;;;;;;;19.09;61.96;100144.34;20815947;28;20731;-70
2021/09/19 16:43:22;;;;;;;5.78;3.45;;;;;;;18.83;64.79;100158.16;20817564;28;20055;-71
2021/09/19 16:53:24;;;;;;;5.57;3.88;;;;;;;18.63;67.80;100175.94;20810916;28;20042;-71
2021/09/19 17:03:25;;;;;;;8.25;5.20;;;;;;;18.40;72.10;100189.56;20803699;28;20132;-70
2021/09/19 17:13:28;;;;;;;7.00;5.10;;;;;;;18.22;73.57;100203.75;20795764;28;20074;-71
2021/09/19 17:23:29;;;;;;;7.50;5.53;;;;;;;18.12;74.05;100206.84;20749508;28;20573;-70
2021/09/19 17:33:31;;;;;;;9.50;6.03;;;;;;;17.92;74.73;100221.09;20748410;28;20052;-71
2021/09/19 17:43:33;;;;;;;6.95;3.92;;;;;;;17.87;75.08;100232.81;20746389;28;20050;-70
2021/09/19 17:53:35;;;;;;;5.97;3.85;;;;;;;17.74;75.44;100239.66;20746028;28;20099;-71
2021/09/19 18:03:37;;;;;;;6.07;3.78;;;;;;;17.52;77.06;100259.16;20744138;28;20474;-69
2021/09/19 18:13:39;;;;;;;5.57;3.70;;;;;;;17.25;77.55;100252.47;20772316;28;20084;-68
2021/09/19 18:23:40;;;;;;;6.32;4.05;;;;;;;16.91;79.72;100269.88;20824978;28;20050;-69
2021/09/19 18:33:42;;;;;;;5.53;3.47;;;;;;;16.58;80.87;100286.25;20825476;28;20041;-68
2021/09/19 18:43:43;;;;;;;5.30;2.90;;;;;;;16.37;81.31;100306.47;20826333;28;20045;-69
2021/09/19 18:53:45;;;;;;;4.28;2.50;;;;;;;16.14;82.46;100315.38;20753543;28;20053;-69
2021/09/19 19:03:47;;;;;;;3.70;2.13;;;;;;;15.96;82.90;100318.72;20738138;28;20052;-71
2021/09/19 19:13:50;;;;;;;3.85;1.90;;;;;;;15.77;83.02;100341.47;20741267;28;20057;-69
2021/09/19 19:23:53;;;;;;;2.85;1.60;;;;;;;15.52;84.25;100339.75;20737361;28;20077;-69
2021/09/19 19:33:55;;;;;;;3.83;2.05;;;;;;;15.36;85.30;100352.59;20720317;28;20049;-69
2021/09/19 19:43:56;;;;;;;3.25;1.83;;;;;;;15.22;85.93;100351.38;20738179;28;20053;-70
2021/09/19 19:53:58;;;;;;;2.92;1.73;;;;;;;15.16;86.12;100357.75;20736276;28;20103;-69
2021/09/19 20:03:59;;;;;;;3.05;1.73;;;;;;;15.04;86.90;100359.03;20735727;28;20054;-69
2021/09/19 20:14:01;;;;;;;4.95;2.03;;;;;;;14.94;87.21;100373.44;20770594;28;20075;-69
2021/09/19 20:24:04;;;;;;;3.05;1.65;;;;;;;14.85;87.26;100385.16;20817975;28;20045;-69
2021/09/19 20:34:06;;;;;;;3.03;1.63;;;;;;;14.99;87.06;100392.59;20822091;28;20969;-71
2021/09/19 20:44:07;;;;;;;4.63;1.90;;;;;;;15.12;86.66;100383.34;20835473;28;20045;-70
2021/09/19 20:54:09;;;;;;;4.55;1.95;;;;;;;15.26;85.80;100387.28;20800854;28;20050;-70
2021/09/19 21:04:11;;;;;;;4.28;2.00;;;;;;;15.35;86.29;100395.75;20753544;28;20042;-70
2021/09/19 21:14:16;;;;;;;3.88;1.90;;;;;;;15.43;86.00;100399.88;20753759;28;20049;-70
2021/09/19 21:24:18;;;;;;;;;;;;;;;15.47;85.67;100407.63;20753781;28;20050;-70
2021/09/19 21:46:33;;;;;;;3.47;1.90;;;;;;;15.54;85.70;100424.97;20790318;28;20046;-70
2021/09/19 21:56:35;;;;;;;3.20;1.70;;;;;;;15.51;85.81;100438.25;20817259;28;20058;-71
2021/09/19 22:06:36;;;;;;;4.32;1.60;;;;;;;15.34;86.51;100445.94;20795486;28;20061;-70
2021/09/19 22:16:38;;;;;;;2.80;1.77;;;;;;;15.29;86.31;100453.16;20747761;28;20050;-70
2021/09/19 22:26:41;;;;;;;4.97;2.38;;;;;;;15.14;87.42;100455.38;20746575;28;20985;-70
2021/09/19 22:36:42;;;;;;;5.57;2.60;;;;;;;15.05;89.30;100445.16;20744854;28;20511;-70
2021/09/19 22:46:45;;;;;;;4.68;2.50;;;;;;;15.19;90.22;100449.06;20745036;28;20050;-70
2021/09/19 22:56:47;;;;;;;4.95;2.75;;;;;;;15.19;89.86;100434.13;20744196;28;20054;-70
2021/09/19 23:06:49;;;;;;;5.80;3.88;;;;;;;15.18;88.77;100442.06;20742649;28;20046;-70
2021/09/19 23:16:52;;;;;;;7.05;3.45;;;;;;;15.22;90.32;100446.34;20741509;28;20045;-71
2021/09/19 23:26:55;;;;;;;6.73;3.03;;;;;;;15.23;90.96;100440.13;20740925;28;20049;-70
2021/09/19 23:36:56;;;;;;;7.55;4.55;;;;;;;15.17;90.02;100445.63;20740647;28;20046;-70
2021/09/19 23:46:58;;;;;;;6.07;3.75;;;;;;;15.19;90.14;100449.06;20740487;28;20057;-70
2021/09/19 23:57:00;;;;;;;6.57;4.18;;;;;;;15.12;89.31;100458.97;20739085;28;20145;-72
